Time;durP1;ratioP1;P1;durP2;ratioP2;P2;SDS_P1;SDS_P2;PMS_P1;PMS_P2;Temp;Humidity;BMP_temperature;BMP_pressure;BME280_temperature;BME280_humidity;BME280_pressure;Samples;Min_cycle;Max_cycle;Signal;HPM_P1;HPM_P2
2022/08/17 00:01:55;;;;;;;24.40;21.45;;;;;;;;;;5031805;28;20049;-69
2022/08/17 00:04:21;;;;;;;24.50;22.00;;;;;;;;;;5031321;28;20053;-69
2022/08/17 00:06:49;;;;;;;24.83;22.33;;;;;;;;;;5031412;28;20502;-69
2022/08/17 00:09:16;;;;;;;24.92;22.33;;;;;;;;;;5031466;28;20077;-69
2022/08/17 00:11:45;;;;;;;24.33;21.92;;;;;;;;;;5030386;28;20132;-69
2022/08/17 00:14:32;;;;;;;24.52;21.92;;;;;;;;;;5030319;28;20041;-69
2022/08/17 00:16:58;;;;;;;25.02;22.35;;;;;;;;;;5030136;28;20057;-69
2022/08/17 00:19:25;;;;;;;24.73;22.27;;;;;;;;;;5031365;28;20489;-69
2022/08/17 00:21:54;;;;;;;26.63;23.35;;;;;;;;;;5031327;28;20085;-69
2022/08/17 00:24:41;;;;;;;25.27;22.58;;;;;;;;;;5031186;28;20523;-69
2022/08/17 00:27:07;;;;;;;23.90;21.40;;;;;;;;;;5031588;28;20456;-69
2022/08/17 00:29:34;;;;;;;24.58;22.08;;;;;;;;;;5031610;28;20383;-69
2022/08/17 00:32:00;;;;;;;23.42;20.90;;;;;;;;;;5031279;28;20424;-68
2022/08/17 00:34:47;;;;;;;24.52;22.02;;;;;;;;;;5031500;28;20488;-68
2022/08/17 00:37:13;;;;;;;23.33;20.83;;;;;;;;;;5034054;28;20050;-69
2022/08/17 00:39:40;;;;;;;24.38;21.33;;;;;;;;;;5035393;28;20081;-69
2022/08/17 00:42:16;;;;;;;24.30;21.67;;;;;;;;;;5035186;28;20128;-69
2022/08/17 00:44:43;;;;;;;22.53;20.33;;;;;;;;;;5035224;28;20107;-69
2022/08/17 00:47:10;;;;;;;24.57;22.07;;;;;;;;;;5034853;28;20326;-69
2022/08/17 00:49:36;;;;;;;24.40;21.98;;;;;;;;;;5033589;28;20076;-69
2022/08/17 00:52:09;;;;;;;23.70;21.30;;;;;;;;;;5034760;28;20100;-69
2022/08/17 00:54:38;;;;;;;24.20;21.70;;;;;;;;;;5035016;28;20087;-69
2022/08/17 00:57:09;;;;;;;23.30;20.77;;;;;;;;;;5030911;28;20065;-69
2022/08/17 00:59:37;;;;;;;23.75;21.25;;;;;;;;;;5033889;28;20049;-69
2022/08/17 01:02:05;;;;;;;23.20;20.90;;;;;;;;;;5034459;28;20051;-69
2022/08/17 01:04:32;;;;;;;22.55;20.33;;;;;;;;;;5034803;28;20119;-69
2022/08/17 01:07:00;;;;;;;24.35;21.95;;;;;;;;;;5034402;28;20562;-69
2022/08/17 01:09:26;;;;;;;23.50;21.25;;;;;;;;;;5034648;28;20049;-69
2022/08/17 01:11:53;;;;;;;24.35;21.75;;;;;;;;;;5034651;28;20049;-69
2022/08/17 01:14:23;;;;;;;24.13;21.13;;;;;;;;;;5034048;28;20096;-68
2022/08/17 01:16:51;;;;;;;24.25;21.75;;;;;;;;;;5034219;28;20092;-69
2022/08/17 01:19:19;;;;;;;22.38;20.08;;;;;;;;;;5034490;28;20395;-69
2022/08/17 01:21:49;;;;;;;20.23;18.23;;;;;;;;;;5034173;28;20084;-69
2022/08/17 01:24:16;;;;;;;20.75;18.65;;;;;;;;;;5034325;28;20085;-69
2022/08/17 01:26:43;;;;;;;20.13;18.10;;;;;;;;;;5034017;28;20551;-69
2022/08/17 01:29:10;;;;;;;21.00;18.98;;;;;;;;;;5034370;28;20049;-69
2022/08/17 01:31:38;;;;;;;19.77;17.63;;;;;;;;;;5034269;28;20045;-69
2022/08/17 01:34:07;;;;;;;20.83;18.65;;;;;;;;;;5034003;28;20077;-69
2022/08/17 01:36:38;;;;;;;20.15;18.13;;;;;;;;;;5034160;28;20046;-69
2022/08/17 01:39:07;;;;;;;20.60;18.42;;;;;;;;;;5033039;28;20045;-69
2022/08/17 01:41:34;;;;;;;20.08;18.02;;;;;;;;;;5033835;28;20050;-69
2022/08/17 01:44:01;;;;;;;21.73;19.38;;;;;;;;;;5034099;28;20046;-69
2022/08/17 01:46:28;;;;;;;;;;;;;;;;;;5034488;28;20096;-68
2022/08/17 01:48:55;;;;;;;21.40;19.13;;;;;;;;;;5033658;28;20269;-69
2022/08/17 01:51:22;;;;;;;21.40;19.10;;;;;;;;;;5033771;28;20052;-69
2022/08/17 01:53:50;;;;;;;20.48;18.45;;;;;;;;;;5033917;28;20084;-69
2022/08/17 01:56:18;;;;;;;23.05;19.38;;;;;;;;;;5032675;28;20091;-69
2022/08/17 01:58:45;;;;;;;21.20;19.17;;;;;;;;;;5033820;28;20049;-69
2022/08/17 02:01:13;;;;;;;23.65;21.02;;;;;;;;;;5033789;28;20085;-69
2022/08/17 02:03:40;;;;;;;22.88;19.58;;;;;;;;;;5033477;28;20104;-69
2022/08/17 02:06:21;;;;;;;22.92;20.10;;;;;;;;;;5033514;28;20119;-69
2022/08/17 02:08:53;;;;;;;21.40;19.30;;;;;;;;;;5033333;28;20128;-69
2022/08/17 02:11:30;;;;;;;21.52;19.33;;;;;;;;;;5033671;28;20081;-69
2022/08/17 02:13:57;;;;;;;21.98;19.77;;;;;;;;;;5033190;28;20123;-69
2022/08/17 02:16:29;;;;;;;23.25;20.75;;;;;;;;;;5033492;28;20045;-69
2022/08/17 02:19:04;;;;;;;22.75;20.33;;;;;;;;;;5033524;28;20057;-69
2022/08/17 02:21:31;;;;;;;21.90;19.70;;;;;;;;;;5033032;28;20127;-69
2022/08/17 02:23:58;;;;;;;22.83;20.53;;;;;;;;;;5033099;28;20089;-69
2022/08/17 02:26:24;;;;;;;24.53;21.70;;;;;;;;;;5032976;28;20057;-69
2022/08/17 02:28:52;;;;;;;22.45;20.02;;;;;;;;;;5032936;28;20481;-68
2022/08/17 02:31:20;;;;;;;24.25;21.70;;;;;;;;;;5033248;28;20056;-68
2022/08/17 02:33:46;;;;;;;23.58;21.13;;;;;;;;;;5033153;28;20132;-68
2022/08/17 02:36:28;;;;;;;25.13;22.42;;;;;;;;;;5032884;28;20493;-68
2022/08/17 02:38:55;;;;;;;24.50;22.10;;;;;;;;;;5032808;28;20550;-68
2022/08/17 02:41:22;;;;;;;23.73;21.23;;;;;;;;;;5032747;28;20088;-68
2022/08/17 02:43:48;;;;;;;26.25;22.77;;;;;;;;;;5032909;28;20481;-68
2022/08/17 02:46:15;;;;;;;24.42;21.83;;;;;;;;;;5032917;28;20103;-69
2022/08/17 02:48:41;;;;;;;25.17;21.55;;;;;;;;;;5032508;28;20103;-68
2022/08/17 02:51:08;;;;;;;25.52;22.75;;;;;;;;;;5032609;28;20448;-68
2022/08/17 02:53:34;;;;;;;26.77;23.98;;;;;;;;;;5032418;28;20088;-68
2022/08/17 02:56:01;;;;;;;26.45;23.58;;;;;;;;;;5032436;28;20087;-69
2022/08/17 02:58:28;;;;;;;25.23;22.52;;;;;;;;;;5032003;28;20339;-69
2022/08/17 03:01:02;;;;;;;24.27;21.80;;;;;;;;;;5032316;28;20399;-69
2022/08/17 03:03:28;;;;;;;27.10;23.77;;;;;;;;;;5032603;28;20053;-69
2022/08/17 03:05:55;;;;;;;28.95;23.98;;;;;;;;;;5032272;28;20053;-69
2022/08/17 03:08:22;;;;;;;26.58;23.77;;;;;;;;;;5032319;28;20083;-69
2022/08/17 03:10:49;;;;;;;28.45;23.83;;;;;;;;;;5032282;28;20049;-69
2022/08/17 03:13:16;;;;;;;26.55;23.33;;;;;;;;;;5031820;28;20421;-69
2022/08/17 03:15:44;;;;;;;27.80;23.83;;;;;;;;;;5032130;28;20490;-69
2022/08/17 03:18:11;;;;;;;30.20;24.67;;;;;;;;;;5032356;28;20051;-69
2022/08/17 03:20:51;;;;;;;29.02;24.42;;;;;;;;;;5032409;28;20055;-69
2022/08/17 03:23:18;;;;;;;28.05;24.45;;;;;;;;;;5031988;28;20123;-69
2022/08/17 03:25:49;;;;;;;27.60;24.58;;;;;;;;;;5031979;28;20383;-69
2022/08/17 03:28:19;;;;;;;29.25;24.23;;;;;;;;;;5032052;28;20041;-68
2022/08/17 03:30:45;;;;;;;29.23;25.67;;;;;;;;;;5030879;28;20429;-68
2022/08/17 03:33:12;;;;;;;28.10;24.88;;;;;;;;;;5031833;28;20486;-69
2022/08/17 03:35:39;;;;;;;30.20;25.15;;;;;;;;;;5031938;28;20077;-69
2022/08/17 03:38:06;;;;;;;28.05;25.02;;;;;;;;;;5031850;28;20077;-69
2022/08/17 03:40:32;;;;;;;30.20;26.05;;;;;;;;;;5031884;28;20166;-69
2022/08/17 03:43:20;;;;;;;28.02;24.98;;;;;;;;;;5031877;28;20049;-69
2022/08/17 03:57:15;;;;;;;31.05;25.85;;;;;;;;;;5031500;28;20091;-69
2022/08/17 03:59:42;;;;;;;31.33;26.17;;;;;;;;;;5031555;28;20049;-68
2022/08/17 04:02:13;;;;;;;29.15;26.02;;;;;;;;;;5031079;28;20052;-69
2022/08/17 04:04:39;;;;;;;31.95;26.80;;;;;;;;;;5031751;28;20050;-69
2022/08/17 04:07:06;;;;;;;27.83;24.60;;;;;;;;;;5031575;28;20099;-68
2022/08/17 04:09:33;;;;;;;30.98;27.05;;;;;;;;;;5031603;28;20049;-69
2022/08/17 04:11:59;;;;;;;29.23;26.00;;;;;;;;;;5034000;28;20091;-69
2022/08/17 04:14:35;;;;;;;30.83;26.27;;;;;;;;;;5035527;28;20057;-69
2022/08/17 04:17:17;;;;;;;29.38;25.80;;;;;;;;;;5035697;28;20049;-69
2022/08/17 04:19:45;;;;;;;31.70;26.98;;;;;;;;;;5035405;28;20497;-69
2022/08/17 04:22:11;;;;;;;31.20;26.80;;;;;;;;;;5035342;28;20555;-69
2022/08/17 04:24:58;;;;;;;32.03;26.83;;;;;;;;;;5035295;28;20132;-69
2022/08/17 04:27:24;;;;;;;33.17;25.88;;;;;;;;;;5035470;28;20088;-69
2022/08/17 04:29:51;;;;;;;30.70;26.80;;;;;;;;;;5035537;28;20451;-69
2022/08/17 04:32:21;;;;;;;30.08;26.80;;;;;;;;;;5035032;28;20589;-68
2022/08/17 04:35:08;;;;;;;31.30;26.98;;;;;;;;;;5034997;28;20055;-68
2022/08/17 04:37:34;;;;;;;32.05;27.98;;;;;;;;;;5035160;28;20049;-68
2022/08/17 04:42:58;;;;;;;35.88;28.52;;;;;;;;;;5035243;28;20096;-68
2022/08/17 04:45:26;;;;;;;30.35;27.05;;;;;;;;;;5034997;28;20512;-68
2022/08/17 04:47:57;;;;;;;32.38;27.02;;;;;;;;;;5034836;28;20099;-68
2022/08/17 04:50:24;;;;;;;30.33;26.60;;;;;;;;;;5035200;28;20130;-68
2022/08/17 04:52:50;;;;;;;30.95;27.35;;;;;;;;;;5035015;28;20049;-68
2022/08/17 04:55:17;;;;;;;31.10;26.27;;;;;;;;;;5035068;28;20099;-68
2022/08/17 04:57:43;;;;;;;32.00;27.53;;;;;;;;;;5034934;28;20453;-68
2022/08/17 05:00:10;;;;;;;31.00;26.77;;;;;;;;;;5034944;28;20052;-68
2022/08/17 05:02:44;;;;;;;29.37;26.17;;;;;;;;;;5034806;28;20336;-68
2022/08/17 05:05:19;;;;;;;30.58;26.60;;;;;;;;;;5034599;28;20567;-68
2022/08/17 05:07:46;;;;;;;33.03;26.40;;;;;;;;;;5034701;28;20132;-68
2022/08/17 05:10:12;;;;;;;31.40;27.35;;;;;;;;;;5034332;28;20041;-68
2022/08/17 05:12:39;;;;;;;32.13;28.10;;;;;;;;;;5034443;28;20551;-68
2022/08/17 05:15:09;;;;;;;30.45;27.23;;;;;;;;;;5033224;28;20584;-68
2022/08/17 05:17:35;;;;;;;28.27;25.33;;;;;;;;;;5033182;28;20493;-68
2022/08/17 05:20:02;;;;;;;30.00;26.10;;;;;;;;;;5032975;28;20555;-68
2022/08/17 05:22:30;;;;;;;31.90;25.63;;;;;;;;;;5032682;28;20076;-68
2022/08/17 05:24:56;;;;;;;;;;;;;;;;;;5033754;28;20053;-67
2022/08/17 05:27:22;;;;;;;35.03;27.00;;;;;;;;;;5033229;28;19925;-68
2022/08/17 05:29:53;;;;;;;34.22;25.88;;;;;;;;;;5033134;28;20486;-68
2022/08/17 05:32:21;;;;;;;30.73;27.15;;;;;;;;;;5032992;28;20081;-68
2022/08/17 05:35:05;;;;;;;34.00;28.25;;;;;;;;;;5032910;28;20053;-68
2022/08/17 05:37:32;;;;;;;34.53;28.98;;;;;;;;;;5032789;28;20045;-68
2022/08/17 05:39:58;;;;;;;32.55;29.20;;;;;;;;;;5033215;28;20061;-68
2022/08/17 05:42:25;;;;;;;32.07;28.40;;;;;;;;;;5032933;28;20042;-68
2022/08/17 05:44:51;;;;;;;33.97;29.30;;;;;;;;;;5033068;28;20603;-68
2022/08/17 05:47:18;;;;;;;32.95;29.35;;;;;;;;;;5032716;28;20057;-68
2022/08/17 05:49:45;;;;;;;34.92;29.33;;;;;;;;;;5032651;28;20073;-69
2022/08/17 05:52:22;;;;;;;33.78;29.70;;;;;;;;;;5032903;28;20136;-68
2022/08/17 05:54:51;;;;;;;33.15;29.60;;;;;;;;;;5032942;28;20397;-68
2022/08/17 05:57:22;;;;;;;35.78;30.55;;;;;;;;;;5032494;28;20049;-68
2022/08/17 05:59:48;;;;;;;33.13;29.73;;;;;;;;;;5032750;28;20095;-68
2022/08/17 06:02:18;;;;;;;33.40;29.83;;;;;;;;;;5032403;28;20085;-68
2022/08/17 06:05:10;;;;;;;33.50;29.38;;;;;;;;;;5032320;28;20160;-68
2022/08/17 06:07:42;;;;;;;34.67;30.83;;;;;;;;;;5031516;28;20081;-68
2022/08/17 06:10:36;;;;;;;35.00;29.42;;;;;;;;;;5032241;28;20077;-68
2022/08/17 06:13:08;;;;;;;34.85;29.73;;;;;;;;;;5031251;28;20053;-68
2022/08/17 06:15:41;;;;;;;34.25;29.23;;;;;;;;;;4992005;28;1168240;-68
2022/08/17 06:18:08;;;;;;;36.45;29.50;;;;;;;;;;5033548;28;20096;-68
2022/08/17 06:20:34;;;;;;;;;;;;;;;;;;5032352;28;20068;-68
2022/08/17 06:23:04;;;;;;;32.22;28.75;;;;;;;;;;5033093;28;19924;-68
2022/08/17 06:25:33;;;;;;;32.85;29.23;;;;;;;;;;5032746;28;20485;-68
2022/08/17 06:28:11;;;;;;;32.53;29.10;;;;;;;;;;5033197;28;20072;-68
2022/08/17 06:30:48;;;;;;;31.67;28.27;;;;;;;;;;5032755;28;20111;-68
2022/08/17 06:33:28;;;;;;;32.33;28.88;;;;;;;;;;5032300;28;20056;-68
2022/08/17 06:36:01;;;;;;;30.23;27.02;;;;;;;;;;5033036;28;20049;-68
2022/08/17 06:38:48;;;;;;;28.88;25.85;;;;;;;;;;5032771;28;20119;-68
2022/08/17 06:41:30;;;;;;;30.65;27.42;;;;;;;;;;5020541;28;20409;-68
2022/08/17 06:44:08;;;;;;;30.48;27.27;;;;;;;;;;5032594;28;20079;-68
2022/08/17 06:46:41;;;;;;;32.38;26.33;;;;;;;;;;5032885;28;20113;-68
2022/08/17 06:49:12;;;;;;;29.67;26.58;;;;;;;;;;5031567;28;20081;-68
2022/08/17 06:51:50;;;;;;;29.38;26.30;;;;;;;;;;5032473;28;20084;-68
2022/08/17 06:54:23;;;;;;;28.05;25.05;;;;;;;;;;5020097;28;20111;-69
2022/08/17 06:56:58;;;;;;;27.75;24.85;;;;;;;;;;5032323;28;20089;-68
2022/08/17 06:59:27;;;;;;;27.90;24.98;;;;;;;;;;5032650;28;20049;-68
2022/08/17 07:02:18;;;;;;;27.83;25.02;;;;;;;;;;5032528;28;20077;-68
2022/08/17 07:04:55;;;;;;;27.58;24.67;;;;;;;;;;5030849;28;20460;-68
2022/08/17 07:10:07;;;;;;;25.02;22.52;;;;;;;;;;5031666;28;20041;-68
2022/08/17 07:12:37;;;;;;;26.08;23.30;;;;;;;;;;5020380;28;20050;-68
2022/08/17 07:15:18;;;;;;;24.83;22.13;;;;;;;;;;5022997;28;20057;-67
2022/08/17 07:17:48;;;;;;;23.95;21.40;;;;;;;;;;5032068;28;20488;-68
2022/08/17 07:20:16;;;;;;;24.08;21.58;;;;;;;;;;5027212;28;20551;-68
2022/08/17 07:22:49;;;;;;;22.83;20.60;;;;;;;;;;5031752;28;20103;-68
2022/08/17 07:25:27;;;;;;;22.45;20.25;;;;;;;;;;5031688;28;20092;-68
2022/08/17 07:27:55;;;;;;;22.27;19.98;;;;;;;;;;5031726;28;20060;-68
2022/08/17 07:30:24;;;;;;;21.00;18.92;;;;;;;;;;5031430;28;20172;-68
2022/08/17 07:32:53;;;;;;;21.30;18.85;;;;;;;;;;5031307;28;20473;-68
2022/08/17 07:35:21;;;;;;;19.98;18.08;;;;;;;;;;5031586;28;20104;-67
2022/08/17 07:38:15;;;;;;;19.70;17.65;;;;;;;;;;5031261;28;20505;-67
2022/08/17 07:41:03;;;;;;;18.60;16.30;;;;;;;;;;5031046;28;20084;-67
2022/08/17 07:43:32;;;;;;;18.75;16.33;;;;;;;;;;5029322;28;20052;-68
2022/08/17 07:48:48;;;;;;;18.67;16.17;;;;;;;;;;5029278;28;20077;-68
2022/08/17 07:51:34;;;;;;;18.15;16.25;;;;;;;;;;5031133;28;20085;-68
2022/08/17 07:54:02;;;;;;;17.85;15.95;;;;;;;;;;5030832;28;20081;-68
2022/08/17 07:56:44;;;;;;;17.77;15.75;;;;;;;;;;5031162;28;20061;-68
2022/08/17 07:59:31;;;;;;;19.98;15.90;;;;;;;;;;5031027;28;20045;-68
2022/08/17 08:02:02;;;;;;;17.15;15.32;;;;;;;;;;5030403;28;20053;-68
2022/08/17 08:04:36;;;;;;;16.30;14.70;;;;;;;;;;5029923;28;20049;-68
2022/08/17 08:07:24;;;;;;;16.33;14.63;;;;;;;;;;5029931;28;20165;-68
2022/08/17 08:10:03;;;;;;;16.67;14.95;;;;;;;;;;5030313;28;20113;-68
2022/08/17 08:12:35;;;;;;;15.50;13.90;;;;;;;;;;5016882;28;20080;-67
2022/08/17 08:15:01;;;;;;;16.60;14.85;;;;;;;;;;5030314;28;20057;-68
2022/08/17 08:17:33;;;;;;;15.60;14.00;;;;;;;;;;5030601;28;20103;-68
2022/08/17 08:19:59;;;;;;;14.57;13.18;;;;;;;;;;5026784;28;20041;-68
2022/08/17 08:23:01;;;;;;;15.05;13.27;;;;;;;;;;5030558;28;20128;-67
2022/08/17 08:25:28;;;;;;;16.00;14.30;;;;;;;;;;5028775;28;20489;-67
2022/08/17 08:28:14;;;;;;;16.50;13.87;;;;;;;;;;5030320;28;20129;-67
2022/08/17 08:30:46;;;;;;;16.17;14.50;;;;;;;;;;5030064;28;20085;-67
2022/08/17 08:33:13;;;;;;;15.20;13.52;;;;;;;;;;5030455;28;20452;-68
2022/08/17 08:35:39;;;;;;;;;;;;;;;;;;5030463;28;20468;-68
2022/08/17 08:38:25;;;;;;;14.55;13.15;;;;;;;;;;5030685;28;20442;-67
2022/08/17 08:41:12;;;;;;;13.68;12.23;;;;;;;;;;5031204;28;20057;-68
2022/08/17 08:43:59;;;;;;;15.20;12.38;;;;;;;;;;5030699;28;20061;-68
2022/08/17 08:46:44;;;;;;;15.02;12.88;;;;;;;;;;5030880;28;20049;-73
2022/08/17 08:49:10;;;;;;;14.52;13.13;;;;;;;;;;5030532;28;20045;-74
2022/08/17 08:51:57;;;;;;;14.93;13.32;;;;;;;;;;5029172;28;20164;-74
2022/08/17 08:54:27;;;;;;;14.05;12.65;;;;;;;;;;5029575;28;20073;-72
2022/08/17 08:56:56;;;;;;;14.45;12.98;;;;;;;;;;5030416;28;20497;-73
2022/08/17 09:00:00;;;;;;;16.17;13.60;;;;;;;;;;5034005;28;20049;-73
2022/08/17 09:02:27;;;;;;;15.25;13.65;;;;;;;;;;5034469;28;20053;-75
2022/08/17 09:05:01;;;;;;;14.48;12.57;;;;;;;;;;5033029;28;20057;-74
2022/08/17 09:07:50;;;;;;;13.43;12.15;;;;;;;;;;5034212;28;20076;-73
2022/08/17 09:10:28;;;;;;;13.63;12.23;;;;;;;;;;5020662;28;20050;-74
2022/08/17 09:13:05;;;;;;;12.27;11.07;;;;;;;;;;5034171;28;20563;-73
2022/08/17 09:15:47;;;;;;;11.80;10.60;;;;;;;;;;5033946;28;20063;-72
2022/08/17 09:18:19;;;;;;;12.93;10.70;;;;;;;;;;5033961;28;20080;-72
2022/08/17 09:21:11;;;;;;;11.82;10.65;;;;;;;;;;5031559;28;20064;-70
2022/08/17 09:23:45;;;;;;;14.07;12.40;;;;;;;;;;5033640;28;20057;-71
2022/08/17 09:26:15;;;;;;;13.40;12.00;;;;;;;;;;5031002;28;20081;-72
2022/08/17 09:28:43;;;;;;;13.52;12.13;;;;;;;;;;5033018;28;20045;-72
2022/08/17 09:31:11;;;;;;;14.55;12.00;;;;;;;;;;5020201;28;20084;-72
2022/08/17 09:33:43;;;;;;;14.20;12.70;;;;;;;;;;5033586;28;20099;-71
2022/08/17 09:36:13;;;;;;;14.32;12.90;;;;;;;;;;5032893;28;20053;-71
2022/08/17 09:38:55;;;;;;;15.35;12.93;;;;;;;;;;5033343;28;20428;-72
2022/08/17 09:41:40;;;;;;;14.90;13.32;;;;;;;;;;5032339;28;20057;-68
2022/08/17 09:44:23;;;;;;;15.27;13.25;;;;;;;;;;5031134;28;20060;-68
2022/08/17 09:46:52;;;;;;;15.73;13.40;;;;;;;;;;5033660;28;20057;-68
2022/08/17 09:49:38;;;;;;;16.13;13.85;;;;;;;;;;5032371;28;20563;-68
2022/08/17 09:52:17;;;;;;;14.18;12.32;;;;;;;;;;5032526;28;20084;-69
2022/08/17 09:54:44;;;;;;;13.25;11.77;;;;;;;;;;5033858;28;20456;-69
2022/08/17 09:57:21;;;;;;;14.23;12.90;;;;;;;;;;5034176;28;20053;-69
2022/08/17 10:00:00;;;;;;;14.00;12.60;;;;;;;;;;5033904;28;20081;-69
2022/08/17 10:02:40;;;;;;;15.80;13.85;;;;;;;;;;5033384;28;20078;-68
2022/08/17 10:05:13;;;;;;;16.67;14.48;;;;;;;;;;5033542;28;20076;-69
2022/08/17 10:07:40;;;;;;;17.15;14.98;;;;;;;;;;5033489;28;20053;-69
2022/08/17 10:10:28;;;;;;;16.03;14.33;;;;;;;;;;5031979;28;20485;-69
2022/08/17 10:12:57;;;;;;;16.77;14.43;;;;;;;;;;5033417;28;20516;-69
2022/08/17 10:15:43;;;;;;;15.27;13.57;;;;;;;;;;5031811;28;20061;-69
2022/08/17 10:18:09;;;;;;;14.32;12.82;;;;;;;;;;5033256;28;20076;-68
2022/08/17 10:20:45;;;;;;;13.68;12.32;;;;;;;;;;5033140;28;20481;-68
2022/08/17 10:26:12;;;;;;;17.20;13.07;;;;;;;;;;5033254;28;20053;-69
2022/08/17 10:28:42;;;;;;;14.18;12.77;;;;;;;;;;5032947;28;20509;-69
2022/08/17 10:31:10;;;;;;;13.80;12.40;;;;;;;;;;5033134;28;20103;-69
2022/08/17 10:34:24;;;;;;;13.00;11.57;;;;;;;;;;5032837;28;20136;-69
2022/08/17 10:36:51;;;;;;;12.70;11.40;;;;;;;;;;5031631;28;20050;-69
2022/08/17 10:39:26;;;;;;;12.73;11.25;;;;;;;;;;5033153;28;20107;-69
2022/08/17 10:41:55;;;;;;;13.23;11.35;;;;;;;;;;5031810;28;20115;-69
2022/08/17 10:44:48;;;;;;;13.23;11.30;;;;;;;;;;5032953;28;20067;-69
2022/08/17 10:47:15;;;;;;;13.15;11.30;;;;;;;;;;5032325;28;20077;-69
2022/08/17 10:49:46;;;;;;;11.68;10.48;;;;;;;;;;5031028;28;20084;-69
2022/08/17 10:52:19;;;;;;;12.15;11.02;;;;;;;;;;5032811;28;20099;-69
2022/08/17 10:54:47;;;;;;;11.90;10.70;;;;;;;;;;5032889;28;20500;-69
2022/08/17 10:57:25;;;;;;;11.90;10.65;;;;;;;;;;5032817;28;20053;-69
2022/08/17 10:59:53;;;;;;;12.57;11.30;;;;;;;;;;5032719;28;20405;-69
2022/08/17 11:02:25;;;;;;;13.77;11.48;;;;;;;;;;5032673;28;20141;-69
2022/08/17 11:05:05;;;;;;;12.07;10.88;;;;;;;;;;5032584;28;20464;-69
2022/08/17 11:07:37;;;;;;;11.52;10.43;;;;;;;;;;5032498;28;20053;-69
2022/08/17 11:10:03;;;;;;;13.02;10.13;;;;;;;;;;5032452;28;20073;-69
2022/08/17 11:12:30;;;;;;;13.17;11.23;;;;;;;;;;5032286;28;20072;-69
2022/08/17 11:15:23;;;;;;;11.63;10.47;;;;;;;;;;5031975;28;20904;-69
2022/08/17 11:17:49;;;;;;;12.38;11.00;;;;;;;;;;5031788;28;20084;-69
2022/08/17 11:20:31;;;;;;;12.50;11.30;;;;;;;;;;5031675;28;20080;-69
2022/08/17 11:23:17;;;;;;;13.32;11.05;;;;;;;;;;5020097;28;20088;-68
2022/08/17 11:25:47;;;;;;;12.75;10.68;;;;;;;;;;5018142;28;20057;-69
2022/08/17 11:28:18;;;;;;;10.68;9.57;;;;;;;;;;5031448;28;20520;-69
2022/08/17 11:30:47;;;;;;;10.73;9.70;;;;;;;;;;5031614;28;20091;-69
2022/08/17 11:33:35;;;;;;;10.93;9.82;;;;;;;;;;5031642;28;20127;-69
2022/08/17 11:36:22;;;;;;;11.45;10.30;;;;;;;;;;5031693;28;20049;-68
2022/08/17 11:39:07;;;;;;;10.40;9.30;;;;;;;;;;5031353;28;20091;-68
2022/08/17 11:41:43;;;;;;;10.82;9.73;;;;;;;;;;5031600;28;20056;-68
2022/08/17 11:44:16;;;;;;;10.63;9.55;;;;;;;;;;5031229;28;20056;-69
2022/08/17 11:52:33;;;;;;;11.32;10.27;;;;;;;;;;5031316;28;20100;-68
2022/08/17 11:55:00;;;;;;;11.43;10.23;;;;;;;;;;5031406;28;20081;-69
2022/08/17 11:57:59;;;;;;;12.55;9.40;;;;;;;;;;5031327;28;20446;-69
2022/08/17 12:00:39;;;;;;;10.18;9.25;;;;;;;;;;5027778;28;20053;-69
2022/08/17 12:03:25;;;;;;;10.38;9.10;;;;;;;;;;5031191;28;20053;-69
2022/08/17 12:06:00;;;;;;;10.52;9.48;;;;;;;;;;5031148;28;20045;-67
2022/08/17 12:08:29;;;;;;;10.50;9.50;;;;;;;;;;5031152;28;20049;-68
2022/08/17 12:11:01;;;;;;;11.35;9.35;;;;;;;;;;5031358;28;20517;-69
2022/08/17 12:13:29;;;;;;;9.27;8.32;;;;;;;;;;5031159;28;20045;-68
2022/08/17 12:16:06;;;;;;;10.10;8.50;;;;;;;;;;5030798;28;20088;-67
2022/08/17 12:18:36;;;;;;;8.98;8.27;;;;;;;;;;5030835;28;20045;-68
2022/08/17 12:21:05;;;;;;;8.63;7.88;;;;;;;;;;5029803;28;20468;-68
2022/08/17 12:23:40;;;;;;;10.38;7.70;;;;;;;;;;5030281;28;20042;-68
2022/08/17 12:26:12;;;;;;;8.82;7.90;;;;;;;;;;5030650;28;20123;-68
2022/08/17 12:28:43;;;;;;;8.70;7.88;;;;;;;;;;5030306;28;20053;-68
2022/08/17 12:31:12;;;;;;;8.52;7.63;;;;;;;;;;5030124;28;20080;-68
2022/08/17 12:33:43;;;;;;;8.40;7.63;;;;;;;;;;5032802;28;20489;-68
2022/08/17 12:36:13;;;;;;;9.02;8.13;;;;;;;;;;5034379;28;20584;-69
2022/08/17 12:38:47;;;;;;;8.70;7.90;;;;;;;;;;5034435;28;20037;-68
2022/08/17 12:41:27;;;;;;;7.78;7.07;;;;;;;;;;5034130;28;20081;-68
2022/08/17 12:44:00;;;;;;;7.88;7.18;;;;;;;;;;5034371;28;20108;-68
2022/08/17 12:46:29;;;;;;;8.05;7.10;;;;;;;;;;5033902;28;20061;-69
2022/08/17 12:49:13;;;;;;;8.48;7.68;;;;;;;;;;5033967;28;20057;-68
2022/08/17 12:51:44;;;;;;;8.50;7.80;;;;;;;;;;5034270;28;20509;-68
2022/08/17 12:54:20;;;;;;;8.30;7.50;;;;;;;;;;5034601;28;20115;-68
2022/08/17 12:56:47;;;;;;;7.90;7.13;;;;;;;;;;5034225;28;20482;-68
2022/08/17 12:59:14;;;;;;;7.32;6.65;;;;;;;;;;5032060;28;20497;-68
2022/08/17 13:01:55;;;;;;;6.65;5.72;;;;;;;;;;5034530;28;20053;-68
2022/08/17 13:04:22;;;;;;;6.10;5.60;;;;;;;;;;5034233;28;20049;-68
2022/08/17 13:06:51;;;;;;;6.35;5.75;;;;;;;;;;5033096;28;20465;-68
2022/08/17 13:09:28;;;;;;;5.68;5.18;;;;;;;;;;5034233;28;20088;-68
2022/08/17 13:12:06;;;;;;;6.40;5.80;;;;;;;;;;5034028;28;20092;-68
2022/08/17 13:14:34;;;;;;;6.00;5.32;;;;;;;;;;5034060;28;20409;-69
2022/08/17 13:17:03;;;;;;;5.22;4.82;;;;;;;;;;5033977;28;20053;-68
2022/08/17 13:19:38;;;;;;;6.22;5.20;;;;;;;;;;5033625;28;20099;-68
2022/08/17 13:22:09;;;;;;;5.00;4.45;;;;;;;;;;5033533;28;20049;-68
2022/08/17 13:24:36;;;;;;;6.10;4.88;;;;;;;;;;5033666;28;20438;-69
2022/08/17 13:27:06;;;;;;;6.22;5.68;;;;;;;;;;5033313;28;20100;-68
2022/08/17 13:29:35;;;;;;;6.43;5.82;;;;;;;;;;5033674;28;20080;-68
2022/08/17 13:32:05;;;;;;;5.35;3.92;;;;;;;;;;5033488;28;20045;-69
2022/08/17 13:34:43;;;;;;;7.03;5.57;;;;;;;;;;5033656;28;20041;-68
2022/08/17 13:37:34;;;;;;;4.93;4.53;;;;;;;;;;5033458;28;20041;-68
2022/08/17 13:40:03;;;;;;;6.05;5.13;;;;;;;;;;5033526;28;20053;-68
2022/08/17 13:42:43;;;;;;;5.75;4.80;;;;;;;;;;5032850;28;20052;-68
2022/08/17 13:45:31;;;;;;;5.28;4.53;;;;;;;;;;5033181;28;20049;-68
2022/08/17 13:48:07;;;;;;;5.90;5.35;;;;;;;;;;5030600;28;20049;-68
2022/08/17 13:50:44;;;;;;;5.60;4.88;;;;;;;;;;5032978;28;20072;-68
2022/08/17 13:53:21;;;;;;;6.13;4.63;;;;;;;;;;5033140;28;20041;-68
2022/08/17 13:55:53;;;;;;;4.57;4.18;;;;;;;;;;5033043;28;20073;-68
2022/08/17 13:58:21;;;;;;;5.13;4.57;;;;;;;;;;5032854;28;20053;-69
2022/08/17 14:00:50;;;;;;;4.43;4.07;;;;;;;;;;5031255;28;20134;-69
2022/08/17 14:03:17;;;;;;;4.35;4.00;;;;;;;;;;5033027;28;20049;-69
2022/08/17 14:05:44;;;;;;;4.05;3.65;;;;;;;;;;5033311;28;20467;-69
2022/08/17 14:08:12;;;;;;;4.03;3.38;;;;;;;;;;5033466;28;20049;-69
2022/08/17 14:10:39;;;;;;;3.85;3.55;;;;;;;;;;5033028;28;20081;-69
2022/08/17 14:13:06;;;;;;;3.97;3.58;;;;;;;;;;5032864;28;20490;-68
2022/08/17 14:15:33;;;;;;;3.00;2.78;;;;;;;;;;5033041;28;20049;-68
2022/08/17 14:18:20;;;;;;;4.20;2.83;;;;;;;;;;5032887;28;20057;-68
2022/08/17 14:21:07;;;;;;;3.08;2.60;;;;;;;;;;5032466;28;20434;-68
2022/08/17 14:23:34;;;;;;;3.25;2.53;;;;;;;;;;5032571;28;20071;-68
2022/08/17 14:26:00;;;;;;;3.60;2.30;;;;;;;;;;5032964;28;20119;-68
2022/08/17 14:28:27;;;;;;;2.55;2.35;;;;;;;;;;5031190;28;20053;-68
2022/08/17 14:30:54;;;;;;;4.05;2.78;;;;;;;;;;5032696;28;20049;-67
2022/08/17 14:33:21;;;;;;;3.00;2.67;;;;;;;;;;5032728;28;20099;-68
2022/08/17 14:35:51;;;;;;;2.95;2.80;;;;;;;;;;5033008;28;20115;-68
2022/08/17 14:38:18;;;;;;;2.42;2.22;;;;;;;;;;5032727;28;20409;-68
2022/08/17 14:40:46;;;;;;;3.10;2.88;;;;;;;;;;5032595;28;20084;-66
2022/08/17 14:43:14;;;;;;;3.00;2.70;;;;;;;;;;5032126;28;20504;-67
2022/08/17 14:45:41;;;;;;;2.92;2.72;;;;;;;;;;5032539;28;20505;-67
2022/08/17 14:48:08;;;;;;;3.33;2.90;;;;;;;;;;5031255;28;20045;-68
2022/08/17 14:50:37;;;;;;;3.90;2.50;;;;;;;;;;5032036;28;20099;-66
2022/08/17 14:53:04;;;;;;;3.22;2.58;;;;;;;;;;5032417;28;20080;-67
2022/08/17 14:55:31;;;;;;;3.20;2.90;;;;;;;;;;5031319;28;20454;-67
2022/08/17 14:57:58;;;;;;;3.20;2.90;;;;;;;;;;5032212;28;20053;-67
2022/08/17 15:00:25;;;;;;;;;;;;;;;;;;5030440;28;20460;-67
2022/08/17 15:02:53;;;;;;;3.15;2.95;;;;;;;;;;5031919;28;19979;-67
2022/08/17 15:05:21;;;;;;;3.75;3.10;;;;;;;;;;5032336;28;20091;-66
2022/08/17 15:07:48;;;;;;;2.92;2.13;;;;;;;;;;5031653;28;20053;-67
2022/08/17 15:10:15;;;;;;;2.67;2.28;;;;;;;;;;5031261;28;20505;-66
2022/08/17 15:12:41;;;;;;;;;;;;;;;;;;5031771;28;20069;-67
2022/08/17 15:15:10;;;;;;;2.60;2.40;;;;;;;;;;5030906;28;20364;-67
2022/08/17 15:17:37;;;;;;;3.15;2.38;;;;;;;;;;5031351;28;20103;-67
2022/08/17 15:20:17;;;;;;;3.30;2.67;;;;;;;;;;5031913;28;20152;-67
2022/08/17 15:22:44;;;;;;;2.80;2.28;;;;;;;;;;5018702;28;20147;-66
2022/08/17 15:25:12;;;;;;;3.20;2.30;;;;;;;;;;5031272;28;20091;-67